Time;durP1;ratioP1;P1;durP2;ratioP2;P2;SDS_P1;SDS_P2;PMS_P1;PMS_P2;Temp;Humidity;BMP_temperature;BMP_pressure;BME280_temperature;BME280_humidity;BME280_pressure;Samples;Min_cycle;Max_cycle;Signal;HPM_P1;HPM_P2
2020/12/24 00:01:28;;;;;;;0.83;0.60;;;10.80;99.90;;;;;;4993305;28;20483;-82
2020/12/24 00:03:54;;;;;;;2.87;1.20;;;10.70;99.90;;;;;;4993221;28;20896;-82
2020/12/24 00:06:20;;;;;;;1.07;1.00;;;10.70;99.90;;;;;;4990675;28;20874;-83
2020/12/24 00:08:47;;;;;;;1.03;0.80;;;10.70;99.90;;;;;;4992949;28;20459;-82
2020/12/24 00:11:13;;;;;;;0.60;0.60;;;10.70;99.90;;;;;;4993027;28;20943;-82
2020/12/24 00:13:40;;;;;;;1.20;0.80;;;10.70;99.90;;;;;;4993162;28;20525;-82
2020/12/24 00:16:06;;;;;;;1.00;0.70;;;10.70;99.90;;;;;;4993070;28;20547;-81
2020/12/24 00:18:33;;;;;;;0.77;0.77;;;10.70;99.90;;;;;;4993041;28;20459;-82
2020/12/24 00:20:59;;;;;;;0.60;0.60;;;10.70;99.90;;;;;;4991517;28;20455;-82
2020/12/24 00:23:25;;;;;;;1.93;0.73;;;10.70;99.90;;;;;;4992726;28;20856;-82
2020/12/24 00:25:52;;;;;;;0.73;0.70;;;10.80;99.90;;;;;;4991575;28;20562;-81
2020/12/24 00:28:18;;;;;;;0.70;0.67;;;10.90;99.90;;;;;;4995134;28;20455;-83
2020/12/24 00:30:45;;;;;;;2.10;0.53;;;10.80;99.90;;;;;;4996824;28;20460;-84
2020/12/24 00:33:12;;;;;;;0.50;0.50;;;10.90;99.90;;;;;;4996544;28;20500;-83
2020/12/24 00:35:39;;;;;;;0.60;0.60;;;10.90;99.90;;;;;;4994185;28;20526;-82
2020/12/24 00:38:05;;;;;;;0.50;0.40;;;11.00;99.90;;;;;;4996459;28;20462;-81
2020/12/24 00:40:31;;;;;;;0.50;0.50;;;11.00;99.90;;;;;;4996572;28;20459;-82
2020/12/24 00:42:58;;;;;;;0.53;0.50;;;11.00;99.90;;;;;;4996586;28;20503;-82
2020/12/24 00:45:24;;;;;;;0.60;0.53;;;11.00;99.90;;;;;;4996782;28;20461;-83
2020/12/24 00:47:51;;;;;;;0.80;0.63;;;11.10;99.90;;;;;;4996429;28;20951;-82
2020/12/24 00:50:18;;;;;;;2.20;0.50;;;11.10;99.90;;;;;;4995025;28;20505;-83
2020/12/24 00:52:44;;;;;;;2.97;0.60;;;11.10;99.90;;;;;;4996198;28;20449;-82
2020/12/24 00:55:10;;;;;;;0.43;0.43;;;11.20;99.90;;;;;;4996383;28;20560;-82
2020/12/24 00:57:37;;;;;;;1.17;0.60;;;11.10;99.90;;;;;;4995388;28;20491;-85
2020/12/24 01:00:05;;;;;;;1.10;0.70;;;10.90;99.90;;;;;;4996152;28;20487;-82
2020/12/24 01:02:31;;;;;;;1.60;0.83;;;10.90;99.90;;;;;;4996110;28;20564;-86
2020/12/24 01:04:59;;;;;;;0.67;0.67;;;10.80;99.90;;;;;;4994945;28;21042;-85
2020/12/24 01:07:25;;;;;;;0.97;0.70;;;10.70;99.90;;;;;;4995659;28;20558;-84
2020/12/24 01:09:51;;;;;;;0.60;0.60;;;10.60;99.90;;;;;;4996081;28;20547;-84
2020/12/24 01:12:18;;;;;;;0.70;0.50;;;10.60;99.90;;;;;;4996280;28;20448;-84
2020/12/24 01:14:44;;;;;;;0.90;0.73;;;10.50;99.90;;;;;;4995789;28;20593;-84
2020/12/24 01:17:11;;;;;;;1.23;0.60;;;10.30;99.90;;;;;;4996019;28;20487;-85
2020/12/24 01:19:37;;;;;;;0.50;0.50;;;10.20;99.90;;;;;;4996310;28;20482;-83
2020/12/24 01:22:04;;;;;;;2.73;0.80;;;10.10;99.90;;;;;;4995029;28;21047;-83
2020/12/24 01:24:30;;;;;;;1.43;0.70;;;10.10;99.90;;;;;;4995883;28;20543;-85
2020/12/24 01:26:57;;;;;;;3.20;0.90;;;9.70;99.90;;;;;;4994695;28;20472;-83
2020/12/24 01:29:23;;;;;;;1.70;0.70;;;9.40;99.90;;;;;;4995462;28;20509;-84
2020/12/24 01:31:50;;;;;;;0.70;0.67;;;9.30;99.90;;;;;;4995398;28;20884;-84
2020/12/24 01:34:18;;;;;;;1.33;0.60;;;9.20;99.90;;;;;;4995205;28;20503;-85
2020/12/24 01:36:45;;;;;;;1.13;0.60;;;9.20;99.90;;;;;;4992802;28;20464;-84
2020/12/24 01:39:12;;;;;;;0.60;0.60;;;9.10;99.90;;;;;;4994457;28;20559;-86
2020/12/24 01:41:39;;;;;;;0.50;0.40;;;9.10;99.90;;;;;;4995026;28;20586;-85
2020/12/24 01:44:05;;;;;;;0.50;0.50;;;9.10;99.90;;;;;;4995174;28;20460;-86
2020/12/24 01:46:31;;;;;;;3.07;0.90;;;9.20;99.90;;;;;;4995112;28;20554;-85
2020/12/24 01:48:58;;;;;;;0.77;0.50;;;9.10;99.90;;;;;;4994881;28;20550;-85
2020/12/24 01:51:28;;;;;;;2.63;0.77;;;9.10;99.90;;;;;;4993670;28;20538;-85
2020/12/24 01:53:57;;;;;;;1.00;0.70;;;9.10;99.90;;;;;;4994993;28;20462;-84
2020/12/24 01:56:24;;;;;;;0.50;0.50;;;9.10;99.90;;;;;;4994999;28;20549;-85
2020/12/24 01:58:51;;;;;;;0.60;0.60;;;9.00;99.90;;;;;;4994274;28;20470;-84
2020/12/24 02:01:17;;;;;;;0.60;0.60;;;9.00;99.90;;;;;;4995020;28;20455;-84
2020/12/24 02:03:44;;;;;;;5.40;0.60;;;9.00;99.90;;;;;;4994943;28;20455;-84
2020/12/24 02:06:11;;;;;;;0.60;0.43;;;9.00;99.90;;;;;;4993434;28;20534;-84
2020/12/24 02:08:38;;;;;;;0.50;0.40;;;9.00;99.90;;;;;;4993873;28;20898;-84
2020/12/24 02:11:05;;;;;;;1.27;0.63;;;9.00;99.90;;;;;;4994664;28;20546;-84
2020/12/24 02:13:32;;;;;;;0.60;0.50;;;9.00;99.90;;;;;;4994614;28;21022;-84
2020/12/24 02:15:58;;;;;;;0.73;0.60;;;9.10;99.90;;;;;;4994586;28;20565;-84
2020/12/24 02:18:25;;;;;;;1.53;0.60;;;9.00;99.90;;;;;;4994557;28;20918;-83
2020/12/24 02:20:52;;;;;;;0.50;0.50;;;9.00;99.90;;;;;;4993530;28;20447;-86
2020/12/24 02:23:19;;;;;;;0.60;0.60;;;9.00;99.90;;;;;;4994127;28;20499;-87
2020/12/24 02:25:45;;;;;;;0.70;0.60;;;9.00;99.90;;;;;;4994398;28;20482;-83
2020/12/24 02:28:12;;;;;;;1.83;0.67;;;9.00;99.90;;;;;;4993364;28;20495;-87
2020/12/24 02:30:39;;;;;;;0.77;0.77;;;9.00;99.90;;;;;;4992355;28;20539;-82
2020/12/24 02:33:05;;;;;;;0.60;0.50;;;8.90;99.90;;;;;;4994201;28;21015;-83
2020/12/24 02:35:32;;;;;;;0.63;0.50;;;8.90;99.90;;;;;;4991773;28;20555;-82
2020/12/24 02:38:00;;;;;;;0.50;0.50;;;8.80;99.90;;;;;;4994706;28;21042;-85
2020/12/24 02:40:26;;;;;;;2.00;0.60;;;8.80;99.90;;;;;;4994201;28;20459;-83
2020/12/24 02:42:52;;;;;;;0.90;0.47;;;8.80;99.90;;;;;;4994123;28;20505;-82
2020/12/24 02:45:19;;;;;;;0.50;0.50;;;8.80;99.90;;;;;;4994016;28;21018;-83
2020/12/24 02:47:45;;;;;;;0.50;0.50;;;8.80;99.90;;;;;;4994154;28;20554;-82
2020/12/24 02:50:11;;;;;;;0.90;0.80;;;8.70;99.90;;;;;;4992678;28;20745;-84
2020/12/24 02:52:38;;;;;;;0.60;0.50;;;8.70;99.90;;;;;;4993910;28;20538;-82
2020/12/24 02:55:06;;;;;;;0.40;0.40;;;8.70;99.90;;;;;;4994013;28;21102;-84
2020/12/24 02:57:33;;;;;;;0.67;0.63;;;8.60;99.90;;;;;;4993880;28;20460;-83
2020/12/24 03:00:01;;;;;;;0.63;0.60;;;8.60;99.90;;;;;;4993726;28;20542;-83
2020/12/24 03:02:28;;;;;;;3.17;0.50;;;8.60;99.90;;;;;;4993808;28;20509;-83
2020/12/24 03:04:54;;;;;;;4.17;0.73;;;8.60;99.90;;;;;;4993316;28;20574;-83
2020/12/24 03:07:20;;;;;;;0.80;0.50;;;8.60;99.90;;;;;;4992555;28;20533;-83
2020/12/24 03:13:10;;;;;;;1.43;0.60;;;8.50;99.90;;;;;;4993807;28;20453;-85
2020/12/24 03:15:36;;;;;;;1.43;0.57;;;8.40;99.90;;;;;;4993636;28;20459;-82
2020/12/24 03:18:02;;;;;;;0.70;0.40;;;8.40;99.90;;;;;;4993701;28;20826;-82
2020/12/24 03:20:28;;;;;;;0.77;0.50;;;8.40;99.90;;;;;;4992010;28;20973;-82
2020/12/24 03:22:55;;;;;;;1.37;0.60;;;8.40;99.90;;;;;;4993498;28;20499;-82
2020/12/24 03:25:21;;;;;;;0.50;0.50;;;8.30;99.90;;;;;;4993545;28;20963;-82
2020/12/24 03:27:47;;;;;;;0.80;0.60;;;8.30;99.90;;;;;;4992134;28;20467;-82
2020/12/24 03:30:15;;;;;;;3.57;1.30;;;8.30;99.90;;;;;;4993299;28;20485;-81
2020/12/24 03:32:41;;;;;;;0.57;0.50;;;8.20;99.90;;;;;;4993199;28;20502;-82
2020/12/24 03:35:08;;;;;;;0.60;0.50;;;8.20;99.90;;;;;;4991382;28;20542;-83
2020/12/24 03:37:34;;;;;;;0.60;0.50;;;8.30;99.90;;;;;;4992709;28;20550;-82
2020/12/24 03:40:00;;;;;;;1.03;0.50;;;8.20;99.90;;;;;;4993360;28;20483;-82
2020/12/24 03:42:27;;;;;;;0.77;0.60;;;8.30;99.90;;;;;;4993327;28;20586;-82
2020/12/24 03:44:53;;;;;;;0.57;0.40;;;8.30;99.90;;;;;;4993248;28;20538;-82
2020/12/24 03:47:21;;;;;;;1.23;0.50;;;8.30;99.90;;;;;;4993194;28;20457;-82
2020/12/24 03:49:47;;;;;;;0.40;0.40;;;8.30;99.90;;;;;;4993403;28;20452;-80
2020/12/24 03:52:13;;;;;;;0.50;0.40;;;8.60;99.90;;;;;;4991906;28;20530;-81
2020/12/24 03:54:40;;;;;;;1.07;0.47;;;8.70;99.90;;;;;;4993535;28;20811;-81
2020/12/24 03:57:06;;;;;;;0.50;0.40;;;8.80;99.90;;;;;;4993329;28;20475;-80
2020/12/24 03:59:33;;;;;;;2.43;0.60;;;8.80;99.90;;;;;;4993144;28;20447;-79
2020/12/24 04:01:59;;;;;;;0.50;0.47;;;8.80;99.90;;;;;;4993589;28;20582;-80
2020/12/24 04:04:26;;;;;;;0.80;0.50;;;8.80;99.90;;;;;;4996792;28;20853;-80
2020/12/24 04:06:52;;;;;;;0.57;0.50;;;8.70;99.90;;;;;;4994932;28;20883;-80
2020/12/24 04:09:19;;;;;;;1.00;0.73;;;8.70;99.90;;;;;;4997136;28;20547;-80
2020/12/24 04:11:45;;;;;;;0.97;0.40;;;8.70;99.90;;;;;;4996993;28;20459;-80
2020/12/24 04:14:11;;;;;;;1.23;0.40;;;8.70;99.90;;;;;;4996801;28;20578;-80
2020/12/24 04:16:38;;;;;;;0.63;0.50;;;8.70;99.90;;;;;;4997028;28;21023;-80
2020/12/24 04:19:04;;;;;;;0.50;0.50;;;8.70;99.90;;;;;;4996813;28;20538;-80
2020/12/24 04:21:31;;;;;;;0.60;0.50;;;8.60;99.90;;;;;;4995464;28;20961;-80
2020/12/24 04:23:57;;;;;;;0.60;0.60;;;8.60;99.90;;;;;;4996592;28;20461;-81
2020/12/24 04:26:24;;;;;;;0.70;0.50;;;8.50;99.90;;;;;;4996419;28;20458;-80
2020/12/24 04:28:51;;;;;;;0.60;0.50;;;8.60;99.90;;;;;;4995440;28;20495;-80
2020/12/24 04:31:18;;;;;;;2.07;0.70;;;8.60;99.90;;;;;;4996644;28;20455;-79
2020/12/24 04:33:45;;;;;;;0.60;0.50;;;8.60;99.90;;;;;;4996123;28;20463;-81
2020/12/24 04:36:13;;;;;;;0.80;0.50;;;8.60;99.90;;;;;;4994137;28;20499;-80
2020/12/24 04:38:41;;;;;;;0.80;0.60;;;8.70;99.90;;;;;;4996347;28;20462;-79
2020/12/24 04:41:08;;;;;;;0.60;0.50;;;8.60;99.90;;;;;;4996337;28;20530;-80
2020/12/24 04:43:34;;;;;;;1.23;0.60;;;8.60;99.90;;;;;;4996300;28;20495;-79
2020/12/24 04:46:02;;;;;;;0.60;0.50;;;8.60;99.90;;;;;;4996330;28;20451;-80
2020/12/24 04:48:28;;;;;;;0.50;0.50;;;8.60;99.90;;;;;;4996151;28;20543;-80
2020/12/24 04:50:54;;;;;;;1.60;0.53;;;8.60;99.90;;;;;;4994684;28;20459;-80
2020/12/24 04:53:21;;;;;;;0.60;0.50;;;8.60;99.90;;;;;;4996236;28;20799;-79
2020/12/24 04:55:48;;;;;;;0.53;0.50;;;8.60;99.90;;;;;;4996229;28;20455;-79
2020/12/24 04:58:16;;;;;;;1.17;0.50;;;8.60;99.90;;;;;;4996168;28;20465;-79
2020/12/24 05:00:42;;;;;;;1.03;0.60;;;8.60;99.90;;;;;;4994774;28;20471;-79
2020/12/24 05:03:10;;;;;;;0.60;0.40;;;8.60;99.90;;;;;;4995674;28;20499;-80
2020/12/24 05:05:38;;;;;;;3.63;0.67;;;8.60;99.90;;;;;;4994755;28;20483;-81
2020/12/24 05:08:06;;;;;;;2.37;0.77;;;8.60;99.90;;;;;;4994631;28;20471;-82
2020/12/24 05:10:33;;;;;;;0.70;0.50;;;8.60;99.90;;;;;;4995872;28;20542;-81
2020/12/24 05:13:14;;;;;;;2.30;0.50;;;8.60;99.90;;;;;;4995531;28;20460;-82
2020/12/24 05:15:40;;;;;;;0.70;0.40;;;8.60;99.90;;;;;;4992030;28;20940;-81
2020/12/24 05:18:15;;;;;;;2.00;0.80;;;8.70;99.90;;;;;;4995798;28;20456;-81
2020/12/24 05:20:42;;;;;;;0.70;0.40;;;8.70;99.90;;;;;;4994582;28;20458;-80
2020/12/24 05:23:13;;;;;;;1.03;0.60;;;8.70;99.90;;;;;;4995348;28;20608;-85
2020/12/24 05:25:39;;;;;;;0.57;0.40;;;8.70;99.90;;;;;;4995821;28;20460;-81
2020/12/24 05:28:07;;;;;;;0.50;0.40;;;8.70;99.90;;;;;;4994082;28;20472;-82
2020/12/24 05:30:34;;;;;;;1.13;0.70;;;8.70;99.90;;;;;;4995577;28;20459;-81
2020/12/24 05:33:01;;;;;;;0.85;0.45;;;8.60;99.90;;;;;;4995559;28;20456;-81
2020/12/24 05:35:28;;;;;;;0.50;0.40;;;8.50;99.90;;;;;;4994299;28;20653;-80
2020/12/24 05:37:55;;;;;;;0.50;0.43;;;8.40;99.90;;;;;;4994552;28;20612;-80
2020/12/24 05:40:24;;;;;;;1.20;0.50;;;8.40;99.90;;;;;;4996065;28;20974;-79
2020/12/24 05:42:52;;;;;;;1.30;0.60;;;8.30;99.90;;;;;;4995486;28;20228;-79
2020/12/24 05:45:22;;;;;;;0.50;0.50;;;8.30;99.90;;;;;;4995241;28;20204;-79
2020/12/24 05:48:07;;;;;;;0.60;0.60;;;8.20;99.90;;;;;;4995778;28;20455;-79
2020/12/24 05:50:33;;;;;;;0.43;0.40;;;8.20;99.90;;;;;;4995354;28;20214;-79
2020/12/24 05:53:07;;;;;;;1.67;0.70;;;8.10;99.90;;;;;;4996842;28;20471;-79
2020/12/24 05:55:35;;;;;;;0.70;0.60;;;8.10;99.90;;;;;;5006184;28;20448;-78
2020/12/24 05:58:02;;;;;;;0.50;0.40;;;8.00;99.90;;;;;;5012848;28;20475;-79
2020/12/24 06:00:33;;;;;;;2.00;0.87;;;8.00;99.90;;;;;;5017849;28;20223;-80
2020/12/24 06:03:14;;;;;;;0.65;0.60;;;7.90;99.90;;;;;;5018096;28;20510;-80
2020/12/24 06:05:58;;;;;;;0.97;0.40;;;7.90;99.90;;;;;;4995146;28;20242;-80
2020/12/24 06:08:26;;;;;;;1.97;0.50;;;8.00;99.90;;;;;;4995621;28;20530;-82
2020/12/24 06:11:06;;;;;;;1.67;0.77;;;8.00;99.90;;;;;;4995024;28;20535;-82
2020/12/24 06:13:41;;;;;;;1.25;0.80;;;7.90;99.90;;;;;;4994831;28;20210;-82
2020/12/24 06:16:09;;;;;;;0.88;0.47;;;7.80;99.90;;;;;;4994322;28;20749;-82
2020/12/24 06:18:37;;;;;;;2.23;0.57;;;7.80;99.90;;;;;;4994692;28;20208;-81
2020/12/24 06:21:12;;;;;;;4.80;0.73;;;7.80;99.90;;;;;;4993822;28;20456;-81
2020/12/24 06:23:39;;;;;;;1.60;0.70;;;7.90;99.90;;;;;;4994201;28;20506;-81
2020/12/24 06:26:08;;;;;;;3.10;0.93;;;7.90;99.90;;;;;;4994125;28;20452;-79
2020/12/24 06:28:36;;;;;;;4.10;0.83;;;8.00;99.90;;;;;;4993002;28;20204;-79
2020/12/24 06:31:03;;;;;;;1.07;0.43;;;8.00;99.90;;;;;;4994483;28;20454;-79
2020/12/24 06:33:31;;;;;;;1.67;0.60;;;8.10;99.90;;;;;;4994370;28;20457;-79
2020/12/24 06:35:57;;;;;;;0.73;0.73;;;8.20;99.90;;;;;;4992156;28;20463;-79
2020/12/24 06:38:44;;;;;;;2.40;0.60;;;8.20;99.90;;;;;;4993837;28;20923;-79
2020/12/24 06:41:27;;;;;;;0.67;0.60;;;8.20;99.90;;;;;;4994201;28;20455;-79
2020/12/24 06:43:53;;;;;;;1.83;0.77;;;8.20;99.90;;;;;;4993950;28;20860;-79
2020/12/24 06:46:19;;;;;;;0.90;0.57;;;8.30;99.90;;;;;;4994014;28;20932;-80
2020/12/24 06:49:04;;;;;;;2.87;0.63;;;8.30;99.90;;;;;;4993878;28;20562;-81
2020/12/24 06:51:46;;;;;;;1.70;0.63;;;8.40;99.90;;;;;;4992318;28;20461;-81
2020/12/24 06:54:20;;;;;;;3.10;0.80;;;8.40;99.90;;;;;;4993914;28;20446;-81
2020/12/24 06:56:47;;;;;;;0.70;0.60;;;8.50;99.90;;;;;;4993945;28;21081;-82
2020/12/24 06:59:19;;;;;;;1.57;0.90;;;8.50;99.90;;;;;;4993870;28;20455;-85
2020/12/24 07:02:01;;;;;;;1.10;0.77;;;8.50;99.90;;;;;;4989375;28;20834;-83
2020/12/24 07:04:38;;;;;;;2.20;0.90;;;8.40;99.90;;;;;;4993526;28;20483;-82
2020/12/24 07:07:06;;;;;;;1.47;0.50;;;8.40;99.90;;;;;;4992582;28;20453;-83
2020/12/24 07:09:43;;;;;;;0.50;0.50;;;8.40;99.90;;;;;;4993615;28;20456;-83
2020/12/24 07:12:10;;;;;;;1.70;0.50;;;8.40;99.90;;;;;;4993400;28;20550;-82
2020/12/24 07:14:38;;;;;;;1.60;1.13;;;8.50;99.90;;;;;;4993520;28;20474;-81
2020/12/24 07:17:10;;;;;;;0.60;0.60;;;8.50;99.90;;;;;;4993334;28;20448;-81
2020/12/24 07:19:41;;;;;;;0.67;0.60;;;8.50;99.90;;;;;;4993397;28;20459;-81
2020/12/24 07:22:09;;;;;;;1.43;0.50;;;8.50;99.90;;;;;;4992207;28;20565;-81
2020/12/24 07:24:36;;;;;;;1.97;0.87;;;8.50;99.90;;;;;;4993341;28;20955;-81
2020/12/24 07:27:04;;;;;;;6.00;1.27;;;8.50;99.90;;;;;;4993253;28;20451;-84
2020/12/24 07:29:32;;;;;;;0.93;0.80;;;8.60;99.90;;;;;;4992082;28;20529;-80
2020/12/24 07:32:02;;;;;;;2.10;0.80;;;8.60;99.90;;;;;;4993259;28;20464;-79
2020/12/24 07:34:30;;;;;;;1.80;0.50;;;8.60;99.90;;;;;;4992156;28;20467;-81
2020/12/24 07:36:58;;;;;;;1.73;0.80;;;8.60;99.90;;;;;;4992006;28;20973;-81
2020/12/24 07:39:24;;;;;;;3.73;0.73;;;8.60;99.90;;;;;;4997057;28;20458;-78
2020/12/24 07:41:51;;;;;;;0.90;0.73;;;8.70;99.90;;;;;;4996878;28;20949;-76
2020/12/24 07:44:20;;;;;;;0.70;0.60;;;8.80;99.90;;;;;;4997163;28;20479;-82
2020/12/24 07:46:49;;;;;;;1.80;0.80;;;8.70;99.90;;;;;;4946490;28;20534;-81
2020/12/24 07:49:16;;;;;;;4.33;0.80;;;8.70;99.90;;;;;;4996789;28;20447;-81
2020/12/24 07:51:42;;;;;;;0.97;0.70;;;8.70;99.90;;;;;;4997342;28;20936;-82
2020/12/24 07:54:12;;;;;;;3.30;0.80;;;8.70;99.90;;;;;;4996777;28;20963;-82
2020/12/24 07:56:43;;;;;;;1.00;0.73;;;8.70;99.90;;;;;;4996853;28;20443;-81
2020/12/24 07:59:09;;;;;;;3.17;1.00;;;8.80;99.90;;;;;;4997114;28;20940;-81
2020/12/24 08:01:35;;;;;;;5.60;1.37;;;8.80;99.90;;;;;;4997065;28;20451;-84
2020/12/24 08:04:04;;;;;;;2.37;1.00;;;8.80;99.90;;;;;;4995828;28;20593;-82
2020/12/24 08:06:31;;;;;;;2.10;0.73;;;8.80;99.90;;;;;;4995324;28;20550;-82
2020/12/24 08:09:09;;;;;;;1.90;0.80;;;8.90;99.90;;;;;;4996015;28;20475;-82
2020/12/24 08:11:35;;;;;;;11.00;1.53;;;8.90;99.90;;;;;;4996446;28;20479;-82
2020/12/24 08:14:02;;;;;;;1.10;1.00;;;9.00;99.90;;;;;;4996565;28;20485;-82
2020/12/24 08:16:29;;;;;;;2.20;0.73;;;9.00;99.90;;;;;;4996797;28;20485;-81
2020/12/24 08:19:03;;;;;;;2.10;1.03;;;9.00;99.90;;;;;;4996621;28;20878;-85
2020/12/24 08:21:34;;;;;;;1.63;0.80;;;9.10;99.90;;;;;;4995488;28;20844;-83
2020/12/24 08:24:04;;;;;;;1.13;1.03;;;9.10;99.90;;;;;;4996524;28;20593;-81
2020/12/24 08:26:33;;;;;;;1.25;0.90;;;9.00;99.90;;;;;;4997365;28;20400;-81
2020/12/24 08:29:04;;;;;;;1.30;0.70;;;9.00;99.90;;;;;;4994324;28;20456;-82
2020/12/24 08:31:31;;;;;;;1.20;0.50;;;9.00;99.90;;;;;;4996409;28;20212;-81
2020/12/24 08:33:57;;;;;;;3.70;0.93;;;9.00;99.90;;;;;;4996293;28;20447;-84
2020/12/24 08:36:26;;;;;;;1.57;1.00;;;9.00;99.90;;;;;;4996007;28;20456;-79
2020/12/24 08:39:05;;;;;;;4.83;1.00;;;9.00;99.90;;;;;;5001887;28;20561;-81
2020/12/24 08:41:34;;;;;;;3.63;0.90;;;9.00;99.90;;;;;;4998194;28;21010;-80
2020/12/24 08:44:04;;;;;;;1.13;0.60;;;9.00;99.90;;;;;;4996122;28;20882;-81
2020/12/24 08:46:30;;;;;;;2.40;0.90;;;9.00;99.90;;;;;;4996564;28;20452;-83
2020/12/24 08:48:56;;;;;;;0.90;0.50;;;9.00;99.90;;;;;;4996086;28;20461;-81
2020/12/24 08:51:23;;;;;;;1.20;0.80;;;9.00;99.90;;;;;;4994863;28;20557;-82
2020/12/24 08:53:50;;;;;;;1.37;0.63;;;9.00;99.90;;;;;;4996046;28;20463;-83
2020/12/24 08:56:17;;;;;;;0.97;0.67;;;9.00;99.90;;;;;;4996152;28;20456;-81
2020/12/24 08:58:52;;;;;;;0.40;0.40;;;9.00;99.90;;;;;;4995547;28;20463;-83
2020/12/24 09:01:19;;;;;;;1.27;0.60;;;8.90;99.90;;;;;;4996119;28;20486;-82
2020/12/24 09:03:46;;;;;;;10.10;0.70;;;8.90;99.90;;;;;;4994608;28;20505;-85
2020/12/24 09:06:14;;;;;;;0.87;0.50;;;8.90;99.90;;;;;;4994603;28;21070;-86
2020/12/24 09:08:41;;;;;;;1.33;0.80;;;8.90;99.90;;;;;;4995904;28;20455;-84
2020/12/24 09:11:24;;;;;;;1.37;0.67;;;8.90;99.90;;;;;;4995703;28;20546;-84
2020/12/24 09:13:56;;;;;;;1.13;0.63;;;8.90;99.90;;;;;;4995755;28;20462;-85
2020/12/24 09:16:23;;;;;;;3.90;0.83;;;8.90;99.90;;;;;;4995517;28;20451;-82
2020/12/24 09:18:59;;;;;;;0.80;0.70;;;8.80;99.90;;;;;;4995181;28;20993;-81
2020/12/24 09:21:26;;;;;;;1.47;0.70;;;8.80;99.90;;;;;;4994114;28;20457;-82
2020/12/24 09:23:52;;;;;;;2.60;0.93;;;8.90;99.90;;;;;;4995178;28;20522;-81
2020/12/24 09:26:18;;;;;;;0.40;0.40;;;8.80;99.90;;;;;;4995525;28;20546;-87
2020/12/24 09:28:45;;;;;;;1.00;0.60;;;8.80;99.90;;;;;;4993947;28;20563;-82
2020/12/24 09:31:14;;;;;;;1.87;0.90;;;8.80;99.90;;;;;;4994142;28;20456;-80
2020/12/24 09:33:40;;;;;;;1.43;0.80;;;8.80;99.90;;;;;;4995030;28;20452;-83
2020/12/24 09:36:06;;;;;;;6.43;1.10;;;8.90;99.90;;;;;;4994005;28;20483;-83
2020/12/24 09:38:33;;;;;;;1.00;0.60;;;8.90;99.90;;;;;;4995284;28;20485;-82
2020/12/24 09:40:59;;;;;;;0.83;0.50;;;8.90;99.90;;;;;;4994226;28;20466;-83
2020/12/24 09:43:25;;;;;;;1.40;0.70;;;8.80;99.90;;;;;;4994663;28;20501;-82
2020/12/24 09:45:51;;;;;;;1.17;0.60;;;8.90;99.90;;;;;;4995155;28;20462;-82
2020/12/24 09:48:19;;;;;;;1.70;0.70;;;8.90;99.90;;;;;;4995048;28;20451;-81
2020/12/24 09:50:45;;;;;;;2.77;0.63;;;8.90;99.90;;;;;;4993610;28;20451;-83
2020/12/24 09:53:11;;;;;;;0.70;0.60;;;8.90;99.90;;;;;;4995070;28;20456;-81
2020/12/24 09:55:38;;;;;;;0.60;0.50;;;9.00;99.90;;;;;;4994753;28;20509;-80
2020/12/24 09:58:04;;;;;;;1.83;0.60;;;9.00;99.90;;;;;;4994511;28;20448;-80
2020/12/24 10:00:30;;;;;;;0.60;0.60;;;8.90;99.90;;;;;;4994150;28;20455;-81
2020/12/24 10:02:57;;;;;;;1.43;0.80;;;9.00;99.90;;;;;;4994671;28;20587;-81
2020/12/24 10:05:24;;;;;;;1.60;0.70;;;9.10;99.90;;;;;;4992016;28;20562;-80
2020/12/24 10:07:50;;;;;;;1.30;0.83;;;9.20;99.90;;;;;;4994677;28;20969;-81
2020/12/24 10:10:16;;;;;;;3.37;2.00;;;9.20;99.90;;;;;;4994580;28;20942;-81
2020/12/24 10:12:43;;;;;;;0.63;0.63;;;9.20;99.90;;;;;;4994580;28;20494;-81
2020/12/24 10:15:09;;;;;;;2.90;0.90;;;9.30;99.90;;;;;;4994487;28;20590;-80
2020/12/24 10:17:35;;;;;;;1.33;1.07;;;9.20;99.90;;;;;;4994488;28;20497;-80
2020/12/24 10:20:02;;;;;;;0.63;0.63;;;9.10;99.90;;;;;;4992979;28;21026;-80
2020/12/24 10:22:29;;;;;;;0.97;0.80;;;9.20;99.90;;;;;;4994481;28;20587;-82
2020/12/24 10:24:55;;;;;;;1.47;1.03;;;9.30;99.90;;;;;;4994427;28;20862;-81
2020/12/24 10:27:21;;;;;;;0.70;0.70;;;9.30;99.90;;;;;;4994603;28;20490;-82
2020/12/24 10:29:48;;;;;;;1.23;0.80;;;9.20;99.90;;;;;;4993150;28;20477;-83
2020/12/24 10:32:14;;;;;;;1.07;0.87;;;9.30;99.90;;;;;;4994775;28;20455;-85
2020/12/24 10:34:41;;;;;;;2.70;2.33;;;9.40;99.90;;;;;;4995664;28;21000;-82
2020/12/24 10:37:07;;;;;;;3.37;1.53;;;9.40;99.90;;;;;;4991701;28;20467;-85
2020/12/24 10:39:34;;;;;;;0.67;0.67;;;9.40;99.90;;;;;;4994294;28;20546;-83
2020/12/24 10:42:00;;;;;;;1.37;1.10;;;9.50;99.90;;;;;;4994100;28;20947;-81
2020/12/24 10:44:28;;;;;;;1.43;0.73;;;9.40;99.90;;;;;;4994013;28;20646;-83
2020/12/24 10:46:54;;;;;;;2.00;1.03;;;9.30;99.90;;;;;;4993902;28;20969;-82
2020/12/24 10:49:21;;;;;;;1.90;1.50;;;9.30;99.90;;;;;;4993723;28;20455;-85
2020/12/24 10:51:47;;;;;;;1.50;1.03;;;9.30;99.90;;;;;;4992647;28;20455;-87
2020/12/24 10:54:14;;;;;;;0.53;0.50;;;9.30;99.90;;;;;;4994007;28;20516;-84
2020/12/24 10:56:44;;;;;;;0.93;0.80;;;9.30;99.90;;;;;;4993855;28;20451;-82
2020/12/24 10:59:10;;;;;;;1.00;0.90;;;9.30;99.90;;;;;;4993766;28;20455;-81
2020/12/24 11:01:37;;;;;;;0.90;0.90;;;9.30;99.90;;;;;;4993640;28;20790;-82
2020/12/24 11:04:05;;;;;;;1.33;0.80;;;9.40;99.90;;;;;;4993600;28;20586;-82
2020/12/24 11:06:34;;;;;;;1.90;1.23;;;9.50;99.90;;;;;;4990568;28;20475;-82
2020/12/24 11:09:00;;;;;;;1.10;1.00;;;9.50;99.90;;;;;;4992987;28;20451;-81
2020/12/24 11:11:27;;;;;;;0.80;0.53;;;9.50;99.90;;;;;;4992819;28;20517;-82
2020/12/24 11:13:54;;;;;;;1.30;1.10;;;9.50;99.90;;;;;;4992807;28;20538;-83
2020/12/24 11:16:24;;;;;;;1.20;0.80;;;9.50;99.90;;;;;;4992791;28;20462;-76
2020/12/24 11:18:51;;;;;;;1.20;0.87;;;9.50;99.90;;;;;;4992804;28;20447;-80
2020/12/24 11:21:18;;;;;;;0.90;0.67;;;9.60;99.90;;;;;;4990356;28;20521;-86
2020/12/24 11:23:44;;;;;;;1.53;1.43;;;9.50;99.90;;;;;;4992844;28;20869;-85
2020/12/24 11:26:11;;;;;;;4.67;1.90;;;9.50;99.90;;;;;;4992760;28;20454;-77
2020/12/24 11:28:37;;;;;;;1.23;0.90;;;9.50;99.90;;;;;;4991386;28;20558;-78
2020/12/24 11:31:05;;;;;;;1.40;1.30;;;9.60;99.90;;;;;;4992403;28;20539;-79
2020/12/24 11:36:53;;;;;;;1.10;0.70;;;10.10;99.90;;;;;;4991589;28;20802;-82
2020/12/24 11:39:19;;;;;;;1.90;1.10;;;10.00;99.90;;;;;;4992370;28;20455;-82
2020/12/24 11:41:46;;;;;;;0.77;0.70;;;10.00;99.90;;;;;;4992818;28;20538;-87
2020/12/24 11:44:12;;;;;;;1.07;0.50;;;9.90;99.90;;;;;;4992346;28;20495;-82
2020/12/24 11:46:39;;;;;;;1.57;0.67;;;10.10;99.90;;;;;;4992184;28;20451;-82
2020/12/24 11:49:06;;;;;;;0.80;0.50;;;10.10;99.90;;;;;;4992311;28;21002;-84
2020/12/24 11:51:32;;;;;;;1.33;0.60;;;10.40;99.90;;;;;;4991211;28;20448;-83
2020/12/24 11:53:58;;;;;;;1.17;0.50;;;10.70;99.90;;;;;;4992457;28;20864;-85
2020/12/24 11:56:25;;;;;;;0.50;0.50;;;10.80;99.90;;;;;;4992083;28;20541;-79
2020/12/24 11:58:53;;;;;;;1.07;0.50;;;10.60;99.90;;;;;;4992053;28;20459;-81
2020/12/24 12:01:20;;;;;;;0.53;0.50;;;10.80;99.90;;;;;;4992644;28;20463;-82
2020/12/24 12:03:48;;;;;;;0.60;0.60;;;10.80;99.90;;;;;;4992109;28;20502;-82
2020/12/24 12:06:15;;;;;;;1.57;1.23;;;10.90;99.90;;;;;;4969399;28;610323;-85
2020/12/24 12:08:41;;;;;;;3.83;3.63;;;10.80;99.90;;;;;;4993037;28;20211;-81
2020/12/24 12:11:08;;;;;;;2.47;2.27;;;10.60;99.90;;;;;;4993044;28;20545;-84
2020/12/24 12:13:36;;;;;;;0.80;0.70;;;10.70;99.90;;;;;;4993046;28;20538;-81
2020/12/24 12:16:05;;;;;;;1.43;1.00;;;10.60;99.90;;;;;;4993153;28;20530;-81
2020/12/24 12:18:32;;;;;;;0.97;0.67;;;10.40;99.90;;;;;;4993038;28;20518;-83
2020/12/24 12:20:59;;;;;;;1.90;1.43;;;10.20;99.90;;;;;;4991389;28;20455;-80
2020/12/24 12:23:26;;;;;;;0.73;0.73;;;10.20;99.90;;;;;;4994007;28;20501;-80
2020/12/24 12:25:52;;;;;;;1.10;0.70;;;10.10;99.90;;;;;;4996671;28;20447;-80
2020/12/24 12:28:19;;;;;;;0.50;0.50;;;10.20;99.90;;;;;;4996618;28;20462;-82
2020/12/24 12:30:45;;;;;;;1.70;0.60;;;10.10;99.90;;;;;;4999438;28;20534;-85
2020/12/24 12:33:11;;;;;;;0.70;0.70;;;10.10;99.90;;;;;;4998751;28;20565;-84
2020/12/24 12:35:38;;;;;;;0.60;0.50;;;10.30;99.90;;;;;;4996080;28;20463;-85
2020/12/24 12:38:05;;;;;;;0.50;0.50;;;10.30;99.90;;;;;;4998413;28;20455;-85
2020/12/24 12:40:31;;;;;;;0.40;0.40;;;10.20;99.90;;;;;;4995159;28;20463;-85
2020/12/24 12:42:58;;;;;;;0.60;0.60;;;10.10;99.90;;;;;;4996252;28;20549;-84
2020/12/24 12:45:24;;;;;;;0.63;0.50;;;10.10;99.90;;;;;;4997676;28;20857;-85
2020/12/24 12:47:51;;;;;;;0.50;0.50;;;10.10;99.90;;;;;;4979330;28;20509;-82
2020/12/24 12:50:17;;;;;;;1.17;0.70;;;10.00;99.90;;;;;;4996037;28;20487;-84
2020/12/24 12:52:43;;;;;;;1.33;0.60;;;10.00;99.90;;;;;;4994913;28;20959;-82
2020/12/24 12:55:11;;;;;;;0.60;0.50;;;10.10;99.90;;;;;;4996111;28;20542;-81
2020/12/24 12:57:37;;;;;;;0.60;0.60;;;10.20;99.90;;;;;;4995001;28;20467;-84
2020/12/24 13:00:06;;;;;;;0.67;0.67;;;10.10;99.90;;;;;;4995979;28;20607;-83
2020/12/24 13:02:32;;;;;;;0.50;0.50;;;10.00;99.90;;;;;;4995128;28;20502;-83
2020/12/24 13:04:59;;;;;;;0.50;0.50;;;10.00;99.90;;;;;;4994796;28;20855;-84